createdAt,value
2023-05-23T00:00:04.383Z,1009.32
2023-05-23T00:01:04.394Z,1009.29
2023-05-23T00:02:04.428Z,1009.31
2023-05-23T00:03:04.480Z,1009.31
2023-05-23T00:04:04.372Z,1009.34
2023-05-23T00:05:04.330Z,1009.29
2023-05-23T00:06:04.325Z,1009.32
2023-05-23T00:07:04.308Z,1009.32
2023-05-23T00:08:04.300Z,1009.28
2023-05-23T00:09:04.289Z,1009.27
2023-05-23T00:10:04.284Z,1009.32
2023-05-23T00:11:04.267Z,1009.31
2023-05-23T00:12:04.376Z,1009.32
2023-05-23T00:13:04.254Z,1009.37
2023-05-23T00:14:04.243Z,1009.43
2023-05-23T00:15:04.223Z,1009.44
2023-05-23T00:16:04.214Z,1009.43
2023-05-23T00:17:04.293Z,1009.44
2023-05-23T00:18:04.193Z,1009.47
2023-05-23T00:19:04.250Z,1009.52
2023-05-23T00:20:04.173Z,1009.51
2023-05-23T00:21:04.172Z,1009.50
2023-05-23T00:22:04.177Z,1009.50
2023-05-23T00:23:04.160Z,1009.51
2023-05-23T00:24:04.129Z,1009.55
2023-05-23T00:25:04.123Z,1009.52
2023-05-23T00:26:04.115Z,1009.49
2023-05-23T00:27:04.101Z,1009.55
2023-05-23T00:28:04.210Z,1009.58
2023-05-23T00:29:04.081Z,1009.58
2023-05-23T00:30:04.069Z,1009.56
2023-05-23T00:31:04.088Z,1009.56
2023-05-23T00:32:04.056Z,1009.59
2023-05-23T00:33:04.089Z,1009.60
2023-05-23T00:34:04.038Z,1009.64
2023-05-23T00:35:04.021Z,1009.67
2023-05-23T00:36:04.009Z,1009.65
2023-05-23T00:37:04.004Z,1009.64
2023-05-23T00:38:03.988Z,1009.65
2023-05-23T00:39:03.983Z,1009.65
2023-05-23T00:40:03.976Z,1009.62
2023-05-23T00:41:03.963Z,1009.61
2023-05-23T00:42:03.948Z,1009.60
2023-05-23T00:43:03.949Z,1009.66
2023-05-23T00:44:04.041Z,1009.64
2023-05-23T00:45:03.916Z,1009.66
2023-05-23T00:46:03.912Z,1009.66
2023-05-23T00:47:03.903Z,1009.68
2023-05-23T00:48:03.917Z,1009.70
2023-05-23T00:49:03.881Z,1009.71
2023-05-23T00:50:03.868Z,1009.71
2023-05-23T00:51:03.863Z,1009.73
2023-05-23T00:52:03.845Z,1009.72
2023-05-23T00:53:03.833Z,1009.71
2023-05-23T00:54:03.820Z,1009.74
2023-05-23T00:55:03.809Z,1009.74
2023-05-23T00:56:03.802Z,1009.75
2023-05-23T00:57:03.793Z,1009.76
2023-05-23T00:58:03.785Z,1009.75
2023-05-23T00:59:03.766Z,1009.74
2023-05-23T01:00:03.876Z,1009.80
2023-05-23T01:01:03.769Z,1009.73
2023-05-23T01:02:03.777Z,1009.76
2023-05-23T01:03:03.817Z,1009.72
2023-05-23T01:04:03.724Z,1009.72
2023-05-23T01:05:03.705Z,1009.69
2023-05-23T01:06:03.693Z,1009.63
2023-05-23T01:07:03.679Z,1009.62
2023-05-23T01:08:03.666Z,1009.61
2023-05-23T01:09:03.661Z,1009.59
2023-05-23T01:10:03.648Z,1009.62
2023-05-23T01:11:03.645Z,1009.57
2023-05-23T01:12:03.628Z,1009.58
2023-05-23T01:13:03.626Z,1009.63
2023-05-23T01:14:03.630Z,1009.60
2023-05-23T01:15:03.596Z,1009.59
2023-05-23T01:16:03.776Z,1009.61
2023-05-23T01:17:03.575Z,1009.56
2023-05-23T01:18:03.603Z,1009.62
2023-05-23T01:19:03.580Z,1009.68
2023-05-23T01:20:03.552Z,1009.66
2023-05-23T01:21:03.533Z,1009.69
2023-05-23T01:22:03.528Z,1009.66
2023-05-23T01:23:03.521Z,1009.67
2023-05-23T01:24:03.552Z,1009.63
2023-05-23T01:25:03.494Z,1009.67
2023-05-23T01:26:03.485Z,1009.63
2023-05-23T01:27:03.478Z,1009.65
2023-05-23T01:28:03.464Z,1009.66
2023-05-23T01:29:03.453Z,1009.66
2023-05-23T01:31:21.810Z,1009.66
2023-05-23T01:32:19.596Z,1009.60
2023-05-23T01:33:19.593Z,1009.67
2023-05-23T01:34:19.576Z,1009.64
2023-05-23T01:35:19.566Z,1009.66
2023-05-23T01:36:19.555Z,1009.66
2023-05-23T01:37:19.550Z,1009.72
2023-05-23T01:38:19.536Z,1009.67
2023-05-23T01:39:19.524Z,1009.71
2023-05-23T01:40:19.521Z,1009.72
2023-05-23T01:41:19.509Z,1009.68
2023-05-23T01:42:19.495Z,1009.70
2023-05-23T01:43:19.482Z,1009.74
2023-05-23T01:44:20.996Z,1009.72
2023-05-23T01:45:19.460Z,1009.69
2023-05-23T01:46:19.552Z,1009.73
2023-05-23T01:47:19.555Z,1009.74
2023-05-23T01:48:19.428Z,1009.69
2023-05-23T01:49:19.419Z,1009.74
2023-05-23T01:50:19.423Z,1009.72
2023-05-23T01:51:19.413Z,1009.74
2023-05-23T01:52:19.390Z,1009.74
2023-05-23T01:53:19.372Z,1009.76
2023-05-23T01:54:19.363Z,1009.74
2023-05-23T01:55:19.350Z,1009.73
2023-05-23T01:56:19.342Z,1009.75
2023-05-23T01:57:19.332Z,1009.71
2023-05-23T01:58:19.317Z,1009.73
2023-05-23T01:59:19.314Z,1009.80
2023-05-23T02:00:19.299Z,1009.77
2023-05-23T02:01:19.322Z,1009.79
2023-05-23T02:02:19.319Z,1009.80
2023-05-23T02:03:19.524Z,1009.77
2023-05-23T02:04:19.258Z,1009.74
2023-05-23T02:05:19.272Z,1009.81
2023-05-23T02:06:19.240Z,1009.81
2023-05-23T02:07:19.233Z,1009.80
2023-05-23T02:08:19.212Z,1009.82
2023-05-23T02:09:19.199Z,1009.82
2023-05-23T02:10:19.189Z,1009.87
2023-05-23T02:11:19.175Z,1009.85
2023-05-23T02:12:19.168Z,1009.81
2023-05-23T02:13:19.154Z,1009.86
2023-05-23T02:14:19.148Z,1009.80
2023-05-23T02:15:19.143Z,1009.83
2023-05-23T02:16:19.128Z,1009.83
2023-05-23T02:17:19.126Z,1009.83
2023-05-23T02:18:19.102Z,1009.82
2023-05-23T02:19:19.294Z,1009.78
2023-05-23T02:20:19.135Z,1009.76
2023-05-23T02:21:19.071Z,1009.78
2023-05-23T02:22:19.060Z,1009.80
2023-05-23T02:23:19.044Z,1009.78
2023-05-23T02:24:19.035Z,1009.76
2023-05-23T02:25:19.029Z,1009.70
2023-05-23T02:26:19.014Z,1009.73
2023-05-23T02:27:19.005Z,1009.77
2023-05-23T02:28:18.996Z,1009.76
2023-05-23T02:29:18.985Z,1009.76
2023-05-23T02:30:19.020Z,1009.72
2023-05-23T02:31:19.011Z,1009.74
2023-05-23T02:32:18.952Z,1009.75
2023-05-23T02:33:18.935Z,1009.78
2023-05-23T02:34:18.932Z,1009.85
2023-05-23T02:35:19.030Z,1009.82
2023-05-23T02:36:18.913Z,1009.90
2023-05-23T02:37:18.894Z,1009.85
2023-05-23T02:38:18.888Z,1009.86
2023-05-23T02:39:18.871Z,1009.86
2023-05-23T02:40:18.878Z,1009.90
2023-05-23T02:41:18.870Z,1009.95
2023-05-23T02:42:18.839Z,1009.92
2023-05-23T02:43:18.843Z,1009.97
2023-05-23T02:44:18.819Z,1010.01
2023-05-23T02:45:18.811Z,1009.98
2023-05-23T02:46:18.839Z,1010.01
2023-05-23T02:47:18.782Z,1010.02
2023-05-23T02:48:18.772Z,1009.97
2023-05-23T02:49:18.768Z,1010.04
2023-05-23T02:50:18.762Z,1010.05
2023-05-23T02:51:18.832Z,1010.03
2023-05-23T02:52:18.743Z,1010.02
2023-05-23T02:53:18.717Z,1009.96
2023-05-23T02:54:18.708Z,1010.01
2023-05-23T02:55:18.704Z,1010.10
2023-05-23T02:56:18.695Z,1010.06
2023-05-23T02:57:18.675Z,1010.06
2023-05-23T02:58:18.672Z,1010.06
2023-05-23T02:59:18.658Z,1010.02
2023-05-23T03:00:18.650Z,1010.00
2023-05-23T03:01:18.642Z,1010.01
2023-05-23T03:02:18.655Z,1010.03
2023-05-23T03:03:18.752Z,1010.08
2023-05-23T03:04:18.616Z,1010.04
2023-05-23T03:05:18.626Z,1010.07
2023-05-23T03:06:18.622Z,1010.07
2023-05-23T03:07:27.579Z,1010.12
2023-05-23T03:08:19.638Z,1010.06
2023-05-23T03:09:18.589Z,1010.01
2023-05-23T03:10:18.578Z,1010.08
2023-05-23T03:11:18.570Z,1010.11
2023-05-23T03:12:18.556Z,1010.08
2023-05-23T03:13:18.550Z,1010.08
2023-05-23T03:14:18.537Z,1010.11
2023-05-23T03:15:18.528Z,1010.09
2023-05-23T03:16:18.528Z,1010.12
2023-05-23T03:17:18.505Z,1010.14
2023-05-23T03:18:18.508Z,1010.16
2023-05-23T03:19:18.609Z,1010.17
2023-05-23T03:20:18.470Z,1010.17
2023-05-23T03:21:18.456Z,1010.16
2023-05-23T03:22:18.459Z,1010.20
2023-05-23T03:23:18.567Z,1010.21
2023-05-23T03:24:18.429Z,1010.17
2023-05-23T03:25:18.419Z,1010.19
2023-05-23T03:26:18.418Z,1010.21
2023-05-23T03:27:18.403Z,1010.20
2023-05-23T03:28:18.387Z,1010.22
2023-05-23T03:29:18.376Z,1010.24
2023-05-23T03:30:18.374Z,1010.22
2023-05-23T03:31:18.406Z,1010.19
2023-05-23T03:32:18.395Z,1010.29
2023-05-23T03:33:18.333Z,1010.26
2023-05-23T03:34:18.318Z,1010.33
2023-05-23T03:35:18.315Z,1010.31
2023-05-23T03:36:18.315Z,1010.33
2023-05-23T03:37:18.296Z,1010.37
2023-05-23T03:38:18.283Z,1010.42
2023-05-23T03:39:18.408Z,1010.34
2023-05-23T03:40:18.260Z,1010.39
2023-05-23T03:41:18.250Z,1010.37
2023-05-23T03:42:18.244Z,1010.45
2023-05-23T03:43:18.228Z,1010.41
2023-05-23T03:44:18.219Z,1010.42
2023-05-23T03:45:18.205Z,1010.44
2023-05-23T03:46:18.237Z,1010.40
2023-05-23T03:47:18.187Z,1010.42
2023-05-23T03:48:18.177Z,1010.42
2023-05-23T03:49:18.169Z,1010.47
2023-05-23T03:50:18.164Z,1010.43
2023-05-23T03:51:18.154Z,1010.45
2023-05-23T03:52:18.146Z,1010.46
2023-05-23T03:53:18.131Z,1010.45
2023-05-23T03:54:18.114Z,1010.49
2023-05-23T03:55:18.235Z,1010.54
2023-05-23T03:56:18.093Z,1010.45
2023-05-23T03:57:18.085Z,1010.45
2023-05-23T03:58:18.073Z,1010.41
2023-05-23T03:59:18.062Z,1010.42
2023-05-23T04:00:18.049Z,1010.42
2023-05-23T04:01:18.043Z,1010.52
2023-05-23T04:02:18.057Z,1010.52
2023-05-23T04:03:18.327Z,1010.56
2023-05-23T04:04:18.108Z,1010.52
2023-05-23T04:05:18.001Z,1010.57
2023-05-23T04:06:17.989Z,1010.59
2023-05-23T04:07:17.988Z,1010.62
2023-05-23T04:08:17.972Z,1010.65
2023-05-23T04:09:17.981Z,1010.64
2023-05-23T04:10:17.949Z,1010.66
2023-05-23T04:11:18.134Z,1010.64
2023-05-23T04:12:17.925Z,1010.58
2023-05-23T04:13:17.912Z,1010.60
2023-05-23T04:14:17.907Z,1010.62
2023-05-23T04:15:17.918Z,1010.57
2023-05-23T04:16:17.926Z,1010.60
2023-05-23T04:17:17.877Z,1010.60
2023-05-23T04:18:17.864Z,1010.64
2023-05-23T04:19:17.934Z,1010.66
2023-05-23T04:20:17.842Z,1010.69
2023-05-23T04:21:17.842Z,1010.68
2023-05-23T04:22:17.804Z,1010.69
2023-05-23T04:23:17.786Z,1010.69
2023-05-23T04:24:17.786Z,1010.68
2023-05-23T04:25:17.767Z,1010.69
2023-05-23T04:26:17.741Z,1010.71
2023-05-23T04:27:17.852Z,1010.70
2023-05-23T04:28:17.846Z,1010.70
2023-05-23T04:29:17.713Z,1010.70
2023-05-23T04:30:17.740Z,1010.71
2023-05-23T04:31:17.737Z,1010.70
2023-05-23T04:32:17.679Z,1010.71
2023-05-23T04:33:17.685Z,1010.72
2023-05-23T04:34:17.659Z,1010.71
2023-05-23T04:35:17.654Z,1010.74
2023-05-23T04:36:17.642Z,1010.72
2023-05-23T04:37:17.626Z,1010.74
2023-05-23T04:38:17.620Z,1010.76
2023-05-23T04:39:17.606Z,1010.80
2023-05-23T04:40:17.596Z,1010.74
2023-05-23T04:41:17.613Z,1010.77
2023-05-23T04:42:17.580Z,1010.77
2023-05-23T04:43:17.681Z,1010.80
2023-05-23T04:44:17.551Z,1010.79
2023-05-23T04:45:17.542Z,1010.83
2023-05-23T04:46:17.601Z,1010.76
2023-05-23T04:47:17.521Z,1010.80
2023-05-23T04:48:17.511Z,1010.82
2023-05-23T04:49:17.510Z,1010.85
2023-05-23T04:50:17.491Z,1010.88
2023-05-23T04:51:17.480Z,1010.91
2023-05-23T04:52:17.470Z,1010.85
2023-05-23T04:53:17.461Z,1010.84
2023-05-23T04:54:17.448Z,1010.80
2023-05-23T04:55:17.438Z,1010.82
2023-05-23T04:56:17.580Z,1010.81
2023-05-23T04:57:17.427Z,1010.90
2023-05-23T04:58:17.423Z,1010.88
2023-05-23T04:59:17.512Z,1010.86
2023-05-23T05:00:17.380Z,1010.84
2023-05-23T05:01:17.439Z,1010.88
2023-05-23T05:02:17.375Z,1010.85
2023-05-23T05:03:17.349Z,1010.92
2023-05-23T05:04:17.389Z,1010.88
2023-05-23T05:05:17.326Z,1010.91
2023-05-23T05:06:17.315Z,1010.90
2023-05-23T05:07:17.681Z,1010.90
2023-05-23T05:08:17.291Z,1010.95
2023-05-23T05:09:17.283Z,1010.92
2023-05-23T05:10:17.313Z,1010.96
2023-05-23T05:11:17.271Z,1010.98
2023-05-23T05:12:17.247Z,1011.04
2023-05-23T05:13:17.236Z,1011.10
2023-05-23T05:14:17.223Z,1011.07
2023-05-23T05:15:17.310Z,1011.09
2023-05-23T05:16:17.220Z,1011.12
2023-05-23T05:17:17.193Z,1011.10
2023-05-23T05:18:17.184Z,1011.15
2023-05-23T05:19:17.201Z,1011.16
2023-05-23T05:20:17.162Z,1011.17
2023-05-23T05:21:17.153Z,1011.14
2023-05-23T05:22:17.149Z,1011.14
2023-05-23T05:23:17.138Z,1011.21
2023-05-23T05:24:17.136Z,1011.20
2023-05-23T05:25:17.113Z,1011.21
2023-05-23T05:26:17.096Z,1011.15
2023-05-23T05:27:17.086Z,1011.16
2023-05-23T05:28:17.077Z,1011.20
2023-05-23T05:29:17.073Z,1011.18
2023-05-23T05:30:17.054Z,1011.14
2023-05-23T05:31:17.199Z,1011.26
2023-05-23T05:32:17.034Z,1011.20
2023-05-23T05:33:17.022Z,1011.25
2023-05-23T05:34:17.008Z,1011.18
2023-05-23T05:35:17.016Z,1011.19
2023-05-23T05:36:16.994Z,1011.24
2023-05-23T05:37:16.988Z,1011.30
2023-05-23T05:38:16.969Z,1011.22
2023-05-23T05:39:16.969Z,1011.28
2023-05-23T05:40:16.947Z,1011.25
2023-05-23T05:41:16.956Z,1011.29
2023-05-23T05:42:16.938Z,1011.30
2023-05-23T05:43:16.923Z,1011.34
2023-05-23T05:44:16.909Z,1011.31
2023-05-23T05:45:16.892Z,1011.37
2023-05-23T05:46:16.959Z,1011.36
2023-05-23T05:47:17.028Z,1011.40
2023-05-23T05:48:16.860Z,1011.35
2023-05-23T05:49:16.862Z,1011.37
2023-05-23T05:50:16.848Z,1011.42
2023-05-23T05:51:16.835Z,1011.44
2023-05-23T05:52:16.822Z,1011.38
2023-05-23T05:53:16.819Z,1011.37
2023-05-23T05:54:18.383Z,1011.40
2023-05-23T05:55:16.790Z,1011.44
2023-05-23T05:56:16.796Z,1011.41
2023-05-23T05:57:16.773Z,1011.44
2023-05-23T05:58:16.759Z,1011.46
2023-05-23T05:59:16.756Z,1011.50
2023-05-23T06:00:16.735Z,1011.52
2023-05-23T06:01:16.731Z,1011.44
2023-05-23T06:02:16.732Z,1011.50
2023-05-23T06:03:17.015Z,1011.47
2023-05-23T06:04:16.768Z,1011.49
2023-05-23T06:05:16.724Z,1011.53
2023-05-23T06:06:16.678Z,1011.54
2023-05-23T06:07:16.665Z,1011.48
2023-05-23T06:08:16.656Z,1011.47
2023-05-23T06:09:16.645Z,1011.48
2023-05-23T06:10:16.634Z,1011.50
2023-05-23T06:11:16.629Z,1011.49
2023-05-23T06:12:16.610Z,1011.55
2023-05-23T06:13:16.597Z,1011.49
2023-05-23T06:14:16.590Z,1011.55
2023-05-23T06:15:16.578Z,1011.54
2023-05-23T06:16:16.608Z,1011.54
2023-05-23T06:17:17.043Z,1011.51
2023-05-23T06:18:16.546Z,1011.60
2023-05-23T06:19:16.708Z,1011.57
2023-05-23T06:20:16.540Z,1011.57
2023-05-23T06:21:16.513Z,1011.59
2023-05-23T06:22:16.505Z,1011.60
2023-05-23T06:23:16.497Z,1011.57
2023-05-23T06:24:16.475Z,1011.61
2023-05-23T06:25:16.482Z,1011.59
2023-05-23T06:26:16.459Z,1011.57
2023-05-23T06:27:16.450Z,1011.60
2023-05-23T06:28:16.437Z,1011.63
2023-05-23T06:29:16.424Z,1011.60
2023-05-23T06:30:16.414Z,1011.70
2023-05-23T06:31:16.467Z,1011.61
2023-05-23T06:32:16.396Z,1011.70
2023-05-23T06:33:16.383Z,1011.69
2023-05-23T06:34:16.365Z,1011.74
2023-05-23T06:35:16.473Z,1011.76
2023-05-23T06:36:16.350Z,1011.74
2023-05-23T06:37:16.331Z,1011.75
2023-05-23T06:38:17.813Z,1011.76
2023-05-23T06:39:16.317Z,1011.71
2023-05-23T06:40:16.318Z,1011.79
2023-05-23T06:41:16.294Z,1011.79
2023-05-23T06:42:16.279Z,1011.75
2023-05-23T06:43:16.275Z,1011.84
2023-05-23T06:44:16.256Z,1011.87
2023-05-23T06:45:16.757Z,1011.79
2023-05-23T06:46:16.341Z,1011.81
2023-05-23T06:47:16.228Z,1011.84
2023-05-23T06:48:16.223Z,1011.86
2023-05-23T06:49:16.203Z,1011.91
2023-05-23T06:50:16.189Z,1011.86
2023-05-23T06:51:16.362Z,1011.89
2023-05-23T06:52:16.173Z,1011.84
2023-05-23T06:53:18.880Z,1012.05
2023-05-23T06:54:16.158Z,1011.89
2023-05-23T06:55:16.151Z,1012.05
2023-05-23T06:56:16.121Z,1012.03
2023-05-23T06:57:16.117Z,1012.02
2023-05-23T06:58:16.128Z,1012.01
2023-05-23T06:59:16.101Z,1011.93
2023-05-23T07:00:16.092Z,1012.06
2023-05-23T07:01:16.111Z,1012.12
2023-05-23T07:02:16.055Z,1012.04
2023-05-23T07:03:16.046Z,1012.07
2023-05-23T07:04:16.036Z,1012.10
2023-05-23T07:05:16.044Z,1012.12
2023-05-23T07:06:16.019Z,1012.14
2023-05-23T07:07:16.133Z,1012.16
2023-05-23T07:08:15.991Z,1012.15
2023-05-23T07:09:15.982Z,1012.19
2023-05-23T07:10:15.976Z,1012.20
2023-05-23T07:11:15.963Z,1012.17
2023-05-23T07:12:15.953Z,1012.24
2023-05-23T07:13:15.939Z,1012.19
2023-05-23T07:14:15.930Z,1012.24
2023-05-23T07:15:15.922Z,1012.20
2023-05-23T07:16:15.905Z,1012.25
2023-05-23T07:17:16.009Z,1012.26
2023-05-23T07:18:15.884Z,1012.29
2023-05-23T07:19:15.904Z,1012.27
2023-05-23T07:20:15.862Z,1012.33
2023-05-23T07:21:15.855Z,1012.36
2023-05-23T07:22:15.839Z,1012.33
2023-05-23T07:23:15.957Z,1012.33
2023-05-23T07:24:15.821Z,1012.34
2023-05-23T07:25:15.806Z,1012.33
2023-05-23T07:26:15.795Z,1012.37
2023-05-23T07:27:15.789Z,1012.37
2023-05-23T07:28:15.781Z,1012.34
2023-05-23T07:29:15.871Z,1012.34
2023-05-23T07:30:15.754Z,1012.35
2023-05-23T07:31:15.794Z,1012.34
2023-05-23T07:32:15.728Z,1012.39
2023-05-23T07:33:15.773Z,1012.42
2023-05-23T07:34:15.709Z,1012.41
2023-05-23T07:35:15.712Z,1012.44
2023-05-23T07:36:15.696Z,1012.43
2023-05-23T07:37:15.680Z,1012.40
2023-05-23T07:38:15.679Z,1012.50
2023-05-23T07:39:15.790Z,1012.44
2023-05-23T07:40:15.644Z,1012.54
2023-05-23T07:41:15.633Z,1012.62
2023-05-23T07:42:15.621Z,1012.55
2023-05-23T07:43:15.610Z,1012.57
2023-05-23T07:44:15.625Z,1012.54
2023-05-23T07:45:15.591Z,1012.59
2023-05-23T07:46:15.635Z,1012.57
2023-05-23T07:47:15.571Z,1012.63
2023-05-23T07:48:15.560Z,1012.56
2023-05-23T07:49:15.548Z,1012.62
2023-05-23T07:50:15.543Z,1012.69
2023-05-23T07:51:15.550Z,1012.69
2023-05-23T07:52:15.597Z,1012.70
2023-05-23T07:53:15.509Z,1012.73
2023-05-23T07:54:16.617Z,1012.72
2023-05-23T07:55:15.507Z,1012.72
2023-05-23T07:56:15.481Z,1012.70
2023-05-23T07:57:15.468Z,1012.73
2023-05-23T07:58:15.460Z,1012.71
2023-05-23T07:59:15.448Z,1012.71
2023-05-23T08:00:15.462Z,1012.77
2023-05-23T08:01:15.422Z,1012.71
2023-05-23T08:02:15.469Z,1012.71
2023-05-23T08:03:15.490Z,1012.74
2023-05-23T08:04:15.453Z,1012.75
2023-05-23T08:05:15.379Z,1012.74
2023-05-23T08:06:15.381Z,1012.66
2023-05-23T08:07:16.828Z,1012.74
2023-05-23T08:08:15.353Z,1012.73
2023-05-23T08:09:15.334Z,1012.73
2023-05-23T08:10:15.338Z,1012.76
2023-05-23T08:11:15.337Z,1012.78
2023-05-23T08:12:15.310Z,1012.77
2023-05-23T08:13:15.301Z,1012.78
2023-05-23T08:14:15.290Z,1012.82
2023-05-23T08:15:15.306Z,1012.79
2023-05-23T08:16:15.316Z,1012.78
2023-05-23T08:17:15.316Z,1012.83
2023-05-23T08:18:15.359Z,1012.88
2023-05-23T08:19:15.293Z,1012.84
2023-05-23T08:20:15.226Z,1012.86
2023-05-23T08:21:15.214Z,1012.89
2023-05-23T08:22:15.202Z,1012.91
2023-05-23T08:23:15.222Z,1012.90
2023-05-23T08:24:15.348Z,1012.89
2023-05-23T08:25:15.181Z,1012.96
2023-05-23T08:26:15.167Z,1012.91
2023-05-23T08:27:15.209Z,1012.95
2023-05-23T08:28:15.145Z,1012.94
2023-05-23T08:29:15.137Z,1012.95
2023-05-23T08:30:15.133Z,1012.96
2023-05-23T08:31:15.128Z,1012.92
2023-05-23T08:32:15.226Z,1012.95
2023-05-23T08:33:15.286Z,1012.98
2023-05-23T08:34:15.081Z,1013.00
2023-05-23T08:35:15.074Z,1013.02
2023-05-23T08:36:15.074Z,1013.08
2023-05-23T08:37:15.044Z,1013.05
2023-05-23T08:38:15.039Z,1013.06
2023-05-23T08:39:15.033Z,1013.07
2023-05-23T08:40:15.029Z,1013.12
2023-05-23T08:41:15.009Z,1013.12
2023-05-23T08:42:15.004Z,1013.10
2023-05-23T08:43:15.003Z,1013.05
2023-05-23T08:44:14.976Z,1013.08
2023-05-23T08:45:14.957Z,1013.08
2023-05-23T08:46:14.986Z,1013.02
2023-05-23T08:47:14.939Z,1013.11
2023-05-23T08:48:14.927Z,1013.12
2023-05-23T08:49:14.918Z,1013.20
2023-05-23T08:50:14.925Z,1013.21
2023-05-23T08:51:14.893Z,1013.23
2023-05-23T08:52:14.884Z,1013.24
2023-05-23T08:53:14.872Z,1013.27
2023-05-23T08:54:14.862Z,1013.21
2023-05-23T08:55:14.853Z,1013.21
2023-05-23T08:56:14.863Z,1013.25
2023-05-23T08:57:14.860Z,1013.27
2023-05-23T08:58:14.821Z,1013.30
2023-05-23T08:59:14.824Z,1013.42
2023-05-23T09:00:14.878Z,1013.29
2023-05-23T09:01:14.919Z,1013.29
2023-05-23T09:02:14.784Z,1013.38
2023-05-23T09:03:14.766Z,1013.20
2023-05-23T09:04:14.760Z,1013.33
2023-05-23T09:05:14.776Z,1013.39
2023-05-23T09:06:14.742Z,1013.39
2023-05-23T09:07:14.725Z,1013.37
2023-05-23T09:08:14.718Z,1013.41
2023-05-23T09:09:14.704Z,1013.35
2023-05-23T09:10:14.694Z,1013.43
2023-05-23T09:11:14.681Z,1013.42
2023-05-23T09:12:14.685Z,1013.47
2023-05-23T09:13:14.666Z,1013.45
2023-05-23T09:14:14.686Z,1013.49
2023-05-23T09:15:14.666Z,1013.46
2023-05-23T09:16:14.700Z,1013.49
2023-05-23T09:17:14.621Z,1013.49
2023-05-23T09:18:14.627Z,1013.49
2023-05-23T09:19:14.659Z,1013.51
2023-05-23T09:20:14.701Z,1013.51
2023-05-23T09:21:14.579Z,1013.49
2023-05-23T09:22:14.571Z,1013.45
2023-05-23T09:23:14.560Z,1013.48
2023-05-23T09:24:14.559Z,1013.44
2023-05-23T09:25:14.546Z,1013.33
2023-05-23T09:26:14.550Z,1013.47
2023-05-23T09:27:14.522Z,1013.48
2023-05-23T09:28:14.511Z,1013.55
2023-05-23T09:29:14.496Z,1013.49
2023-05-23T09:30:14.488Z,1013.49
2023-05-23T09:31:14.528Z,1013.43
2023-05-23T09:32:14.470Z,1013.50
2023-05-23T09:33:14.499Z,1013.52
2023-05-23T09:34:14.458Z,1013.51
2023-05-23T09:35:14.639Z,1013.54
2023-05-23T09:36:14.430Z,1013.59
2023-05-23T09:37:14.409Z,1013.55
2023-05-23T09:38:14.414Z,1013.50
2023-05-23T09:39:14.383Z,1013.59
2023-05-23T09:40:14.554Z,1013.54
2023-05-23T09:41:14.366Z,1013.63
2023-05-23T09:42:14.354Z,1013.63
2023-05-23T09:43:14.342Z,1013.71
2023-05-23T09:44:14.335Z,1013.68
2023-05-23T09:45:14.336Z,1013.68
2023-05-23T09:46:14.319Z,1013.66
2023-05-23T09:47:14.443Z,1013.69
2023-05-23T09:48:14.544Z,1013.75
2023-05-23T09:49:14.282Z,1013.76
2023-05-23T09:50:14.274Z,1013.76
2023-05-23T09:51:14.262Z,1013.84
2023-05-23T09:52:14.253Z,1013.85
2023-05-23T09:53:14.245Z,1013.83
2023-05-23T09:54:14.235Z,1013.85
2023-05-23T09:55:14.220Z,1013.87
2023-05-23T09:56:14.210Z,1013.90
2023-05-23T09:57:14.208Z,1013.79
2023-05-23T09:58:14.189Z,1013.86
2023-05-23T09:59:14.185Z,1013.85
2023-05-23T10:00:14.252Z,1013.86
2023-05-23T10:01:14.242Z,1013.91
2023-05-23T10:02:14.149Z,1013.93
2023-05-23T10:03:14.485Z,1013.94
2023-05-23T10:04:14.155Z,1013.93
2023-05-23T10:05:14.112Z,1013.96
2023-05-23T10:06:14.107Z,1013.97
2023-05-23T10:07:14.092Z,1013.90
2023-05-23T10:08:14.087Z,1013.95
2023-05-23T10:09:14.071Z,1013.94
2023-05-23T10:10:14.064Z,1013.94
2023-05-23T10:11:14.082Z,1013.90
2023-05-23T10:12:14.041Z,1013.92
2023-05-23T10:13:14.029Z,1013.89
2023-05-23T10:14:14.025Z,1013.81
2023-05-23T10:15:14.009Z,1013.85
2023-05-23T10:16:14.018Z,1013.90
2023-05-23T10:17:14.021Z,1013.91
2023-05-23T10:18:14.004Z,1013.91
2023-05-23T10:19:14.063Z,1013.85
2023-05-23T10:20:13.964Z,1013.88
2023-05-23T10:21:13.942Z,1013.89
2023-05-23T10:22:13.940Z,1013.89
2023-05-23T10:23:13.944Z,1013.88
2023-05-23T10:24:13.914Z,1013.91
2023-05-23T10:25:13.910Z,1013.88
2023-05-23T10:26:13.908Z,1013.89
2023-05-23T10:27:13.881Z,1013.86
2023-05-23T10:28:13.888Z,1013.81
2023-05-23T10:29:13.855Z,1013.78
2023-05-23T10:30:13.856Z,1013.79
2023-05-23T10:31:13.861Z,1013.79
2023-05-23T10:32:13.836Z,1013.77
2023-05-23T10:33:13.813Z,1013.72
2023-05-23T10:34:13.814Z,1013.75
2023-05-23T10:35:13.837Z,1013.70
2023-05-23T10:36:13.884Z,1013.79
2023-05-23T10:37:13.768Z,1013.75
2023-05-23T10:38:13.763Z,1013.78
2023-05-23T10:39:13.757Z,1013.82
2023-05-23T10:40:13.820Z,1013.87
2023-05-23T10:41:13.775Z,1013.78
2023-05-23T10:42:13.719Z,1013.85
2023-05-23T10:43:13.707Z,1013.88
2023-05-23T10:44:13.699Z,1013.89
2023-05-23T10:45:13.691Z,1013.86
2023-05-23T10:46:13.769Z,1013.91
2023-05-23T10:47:13.787Z,1013.86
2023-05-23T10:48:13.687Z,1013.83
2023-05-23T10:49:13.647Z,1013.84
2023-05-23T10:50:13.719Z,1013.84
2023-05-23T10:51:13.649Z,1013.90
2023-05-23T10:52:13.614Z,1013.88
2023-05-23T10:53:13.596Z,1013.93
2023-05-23T10:54:13.588Z,1013.96
2023-05-23T10:55:13.582Z,1013.91
2023-05-23T10:56:13.567Z,1013.98
2023-05-23T10:57:13.552Z,1014.01
2023-05-23T10:58:13.545Z,1014.06
2023-05-23T10:59:13.532Z,1014.01
2023-05-23T11:00:13.561Z,1014.01
2023-05-23T11:01:13.531Z,1014.13
2023-05-23T11:02:13.740Z,1014.05
2023-05-23T11:03:13.603Z,1014.08
2023-05-23T11:04:13.601Z,1014.11
2023-05-23T11:05:13.470Z,1014.11
2023-05-23T11:06:13.461Z,1014.11
2023-05-23T11:07:13.468Z,1014.05
2023-05-23T11:08:13.443Z,1014.10
2023-05-23T11:09:13.541Z,1014.15
2023-05-23T11:10:13.529Z,1014.14
2023-05-23T11:11:13.409Z,1014.19
2023-05-23T11:12:13.397Z,1014.17
2023-05-23T11:13:13.381Z,1014.17
2023-05-23T11:14:13.376Z,1014.15
2023-05-23T11:15:13.363Z,1014.22
2023-05-23T11:16:13.383Z,1014.13
2023-05-23T11:17:13.395Z,1014.14
2023-05-23T11:18:13.331Z,1014.18
2023-05-23T11:19:13.336Z,1014.15
2023-05-23T11:20:13.460Z,1014.16
2023-05-23T11:21:13.302Z,1014.15
2023-05-23T11:22:13.293Z,1014.12
2023-05-23T11:23:13.306Z,1014.12
2023-05-23T11:24:13.292Z,1014.09
2023-05-23T11:25:13.258Z,1014.09
2023-05-23T11:26:13.244Z,1014.18
2023-05-23T11:27:13.236Z,1014.17
2023-05-23T11:28:13.237Z,1014.19
2023-05-23T11:29:13.220Z,1014.20
2023-05-23T11:30:13.254Z,1014.18
2023-05-23T11:31:13.190Z,1014.20
2023-05-23T11:32:17.372Z,1014.17
2023-05-23T11:33:13.236Z,1014.20
2023-05-23T11:34:13.168Z,1014.27
2023-05-23T11:35:13.149Z,1014.25
2023-05-23T11:36:13.142Z,1014.24
2023-05-23T11:37:13.132Z,1014.28
2023-05-23T11:38:13.126Z,1014.28
2023-05-23T11:39:13.129Z,1014.29
2023-05-23T11:40:13.277Z,1014.28
2023-05-23T11:41:13.102Z,1014.28
2023-05-23T11:42:13.080Z,1014.32
2023-05-23T11:43:13.072Z,1014.35
2023-05-23T11:44:13.077Z,1014.38
2023-05-23T11:45:13.046Z,1014.33
2023-05-23T11:46:13.103Z,1014.30
2023-05-23T11:47:13.026Z,1014.35
2023-05-23T11:48:13.109Z,1014.37
2023-05-23T11:49:13.005Z,1014.35
2023-05-23T11:50:12.995Z,1014.31
2023-05-23T11:51:12.991Z,1014.30
2023-05-23T11:52:12.975Z,1014.30
2023-05-23T11:53:12.966Z,1014.29
2023-05-23T11:54:12.955Z,1014.25
2023-05-23T11:55:12.971Z,1014.23
2023-05-23T11:56:12.932Z,1014.20
2023-05-23T11:57:12.921Z,1014.22
2023-05-23T11:58:12.924Z,1014.22
2023-05-23T11:59:12.913Z,1014.28
2023-05-23T12:00:12.887Z,1014.17
2023-05-23T12:01:12.895Z,1014.18
2023-05-23T12:02:12.882Z,1014.19
2023-05-23T12:03:13.118Z,1014.20
2023-05-23T12:04:13.110Z,1014.25
2023-05-23T12:05:12.840Z,1014.29
2023-05-23T12:06:14.359Z,1014.26